sensor_id;sensor_type;location;lat;lon;timestamp;pressure;altitude;pressure_sealevel;temperature;humidity
64616;BME280;51027;42.162;24.754;2024-01-30T00:00:54;101931.00;;;2.40;65.51
64616;BME280;51027;42.162;24.754;2024-01-30T00:03:19;101938.22;;;2.48;65.33
64616;BME280;51027;42.162;24.754;2024-01-30T00:05:45;101936.78;;;2.29;65.50
64616;BME280;51027;42.162;24.754;2024-01-30T00:08:10;101931.38;;;2.52;64.98
64616;BME280;51027;42.162;24.754;2024-01-30T00:10:36;101940.09;;;2.54;64.86
64616;BME280;51027;42.162;24.754;2024-01-30T00:13:01;101937.69;;;2.60;64.98
64616;BME280;51027;42.162;24.754;2024-01-30T00:15:27;101930.34;;;2.45;65.20
64616;BME280;51027;42.162;24.754;2024-01-30T00:17:53;101937.09;;;2.40;65.65
64616;BME280;51027;42.162;24.754;2024-01-30T00:20:18;101943.09;;;2.38;65.68
64616;BME280;51027;42.162;24.754;2024-01-30T00:22:44;101947.81;;;2.51;65.39
64616;BME280;51027;42.162;24.754;2024-01-30T00:25:09;101949.56;;;2.52;66.15
64616;BME280;51027;42.162;24.754;2024-01-30T00:27:35;101932.94;;;2.45;66.26
64616;BME280;51027;42.162;24.754;2024-01-30T00:30:00;101942.50;;;2.46;66.51
64616;BME280;51027;42.162;24.754;2024-01-30T00:32:26;101909.53;;;2.17;66.46
64616;BME280;51027;42.162;24.754;2024-01-30T00:34:51;101898.97;;;2.12;65.83
64616;BME280;51027;42.162;24.754;2024-01-30T00:37:16;101926.88;;;2.18;66.61
64616;BME280;51027;42.162;24.754;2024-01-30T00:39:42;101942.78;;;2.27;66.79
64616;BME280;51027;42.162;24.754;2024-01-30T00:42:07;101937.53;;;2.25;66.49
64616;BME280;51027;42.162;24.754;2024-01-30T00:44:35;101944.44;;;2.25;67.47
64616;BME280;51027;42.162;24.754;2024-01-30T00:47:02;101931.16;;;2.16;67.94
64616;BME280;51027;42.162;24.754;2024-01-30T00:49:28;101945.50;;;2.31;68.05
64616;BME280;51027;42.162;24.754;2024-01-30T00:51:53;101948.59;;;2.20;68.33
64616;BME280;51027;42.162;24.754;2024-01-30T00:54:19;101939.44;;;2.04;68.75
64616;BME280;51027;42.162;24.754;2024-01-30T00:56:44;101947.97;;;2.00;68.97
64616;BME280;51027;42.162;24.754;2024-01-30T00:59:11;101937.28;;;1.91;69.44
64616;BME280;51027;42.162;24.754;2024-01-30T01:01:36;101921.41;;;1.82;69.77
64616;BME280;51027;42.162;24.754;2024-01-30T01:04:01;101944.91;;;1.85;70.22
64616;BME280;51027;42.162;24.754;2024-01-30T01:06:27;101941.22;;;1.78;70.85
64616;BME280;51027;42.162;24.754;2024-01-30T01:08:52;101947.25;;;1.52;71.69
64616;BME280;51027;42.162;24.754;2024-01-30T01:11:18;101948.72;;;1.43;72.29
64616;BME280;51027;42.162;24.754;2024-01-30T01:13:43;101946.22;;;1.47;72.30
64616;BME280;51027;42.162;24.754;2024-01-30T01:16:09;101941.63;;;1.39;72.57
64616;BME280;51027;42.162;24.754;2024-01-30T01:18:34;101938.22;;;1.40;72.50
64616;BME280;51027;42.162;24.754;2024-01-30T01:21:00;101928.03;;;1.21;72.73
64616;BME280;51027;42.162;24.754;2024-01-30T01:23:26;101913.22;;;0.93;74.20
64616;BME280;51027;42.162;24.754;2024-01-30T01:25:51;101914.81;;;0.90;74.55
64616;BME280;51027;42.162;24.754;2024-01-30T01:28:17;101921.16;;;0.98;74.96
64616;BME280;51027;42.162;24.754;2024-01-30T01:30:42;101924.44;;;0.92;75.64
64616;BME280;51027;42.162;24.754;2024-01-30T01:33:07;101922.63;;;0.91;75.50
64616;BME280;51027;42.162;24.754;2024-01-30T01:35:34;101924.25;;;0.88;75.85
64616;BME280;51027;42.162;24.754;2024-01-30T01:38:00;101913.00;;;0.63;76.21
64616;BME280;51027;42.162;24.754;2024-01-30T01:40:26;101919.59;;;0.79;75.76
64616;BME280;51027;42.162;24.754;2024-01-30T01:42:53;101907.19;;;0.70;75.85
64616;BME280;51027;42.162;24.754;2024-01-30T01:45:20;101904.16;;;0.58;76.71
64616;BME280;51027;42.162;24.754;2024-01-30T01:47:47;101927.53;;;0.60;77.12
64616;BME280;51027;42.162;24.754;2024-01-30T01:50:16;101925.38;;;0.48;77.81
64616;BME280;51027;42.162;24.754;2024-01-30T01:52:47;101916.72;;;0.47;77.76
64616;BME280;51027;42.162;24.754;2024-01-30T01:55:14;101917.44;;;0.43;77.95
64616;BME280;51027;42.162;24.754;2024-01-30T01:57:41;101920.19;;;0.25;78.63
64616;BME280;51027;42.162;24.754;2024-01-30T02:00:08;101932.56;;;0.33;78.68
64616;BME280;51027;42.162;24.754;2024-01-30T02:02:36;101909.72;;;0.45;77.65
64616;BME280;51027;42.162;24.754;2024-01-30T02:05:02;101919.84;;;0.39;78.49
64616;BME280;51027;42.162;24.754;2024-01-30T02:07:28;101933.16;;;0.48;78.24
64616;BME280;51027;42.162;24.754;2024-01-30T02:09:54;101925.03;;;0.39;78.63
64616;BME280;51027;42.162;24.754;2024-01-30T02:12:20;101929.78;;;0.28;79.46
64616;BME280;51027;42.162;24.754;2024-01-30T02:14:46;101927.44;;;0.34;79.37
64616;BME280;51027;42.162;24.754;2024-01-30T02:17:12;101931.03;;;0.15;80.07
64616;BME280;51027;42.162;24.754;2024-01-30T02:19:38;101925.78;;;0.14;81.10
64616;BME280;51027;42.162;24.754;2024-01-30T02:22:03;101937.09;;;0.38;80.29
64616;BME280;51027;42.162;24.754;2024-01-30T02:24:29;101938.69;;;0.35;80.17
64616;BME280;51027;42.162;24.754;2024-01-30T02:26:55;101939.78;;;0.19;80.31
64616;BME280;51027;42.162;24.754;2024-01-30T02:29:20;101934.81;;;0.01;81.59
64616;BME280;51027;42.162;24.754;2024-01-30T02:31:46;101922.69;;;0.00;81.64
64616;BME280;51027;42.162;24.754;2024-01-30T02:34:11;101932.47;;;-0.14;82.07
64616;BME280;51027;42.162;24.754;2024-01-30T02:36:37;101942.34;;;0.17;81.24
64616;BME280;51027;42.162;24.754;2024-01-30T02:39:03;101947.59;;;-0.02;81.74
64616;BME280;51027;42.162;24.754;2024-01-30T02:41:28;101939.28;;;0.05;82.15
64616;BME280;51027;42.162;24.754;2024-01-30T02:43:54;101950.41;;;0.03;82.00
64616;BME280;51027;42.162;24.754;2024-01-30T02:46:19;101953.81;;;0.02;82.50
64616;BME280;51027;42.162;24.754;2024-01-30T02:48:45;101931.69;;;-0.11;83.19
64616;BME280;51027;42.162;24.754;2024-01-30T02:51:10;101948.13;;;-0.11;83.63
64616;BME280;51027;42.162;24.754;2024-01-30T02:53:35;101947.81;;;0.03;83.25
64616;BME280;51027;42.162;24.754;2024-01-30T02:56:02;101940.81;;;0.00;83.12
64616;BME280;51027;42.162;24.754;2024-01-30T02:58:28;101958.00;;;0.20;82.94
64616;BME280;51027;42.162;24.754;2024-01-30T03:00:53;101953.34;;;0.12;83.15
64616;BME280;51027;42.162;24.754;2024-01-30T03:03:19;101958.69;;;-0.06;84.17
64616;BME280;51027;42.162;24.754;2024-01-30T03:05:44;101958.28;;;0.06;83.48
64616;BME280;51027;42.162;24.754;2024-01-30T03:08:09;101948.44;;;-0.03;83.65
64616;BME280;51027;42.162;24.754;2024-01-30T03:10:35;101941.75;;;0.02;83.48
64616;BME280;51027;42.162;24.754;2024-01-30T03:13:00;101947.38;;;-0.08;83.03
64616;BME280;51027;42.162;24.754;2024-01-30T03:15:26;101950.34;;;0.01;82.98
64616;BME280;51027;42.162;24.754;2024-01-30T03:17:52;101952.16;;;0.04;82.93
64616;BME280;51027;42.162;24.754;2024-01-30T03:20:18;101955.59;;;0.03;82.71
64616;BME280;51027;42.162;24.754;2024-01-30T03:22:43;101949.03;;;-0.10;83.23
64616;BME280;51027;42.162;24.754;2024-01-30T03:25:09;101950.81;;;0.13;82.46
64616;BME280;51027;42.162;24.754;2024-01-30T03:27:34;101914.19;;;0.04;81.49
64616;BME280;51027;42.162;24.754;2024-01-30T03:29:59;101945.13;;;0.22;81.15
64616;BME280;51027;42.162;24.754;2024-01-30T03:32:25;101944.16;;;0.20;82.50
64616;BME280;51027;42.162;24.754;2024-01-30T03:34:50;101953.16;;;0.07;82.70
64616;BME280;51027;42.162;24.754;2024-01-30T03:37:16;101939.94;;;0.22;82.17
64616;BME280;51027;42.162;24.754;2024-01-30T03:39:41;101948.59;;;0.45;81.05
64616;BME280;51027;42.162;24.754;2024-01-30T03:42:06;101949.00;;;0.33;80.78
64616;BME280;51027;42.162;24.754;2024-01-30T03:44:32;101933.25;;;0.28;80.92
64616;BME280;51027;42.162;24.754;2024-01-30T03:46:57;101945.69;;;0.37;81.19
64616;BME280;51027;42.162;24.754;2024-01-30T03:49:23;101922.91;;;0.28;81.15
64616;BME280;51027;42.162;24.754;2024-01-30T03:51:48;101926.63;;;0.35;80.84
64616;BME280;51027;42.162;24.754;2024-01-30T03:54:14;101924.06;;;-0.08;82.05
64616;BME280;51027;42.162;24.754;2024-01-30T03:56:39;101940.47;;;0.13;82.03
64616;BME280;51027;42.162;24.754;2024-01-30T03:59:04;101943.06;;;0.36;81.54
64616;BME280;51027;42.162;24.754;2024-01-30T04:01:30;101926.78;;;-0.05;82.87
64616;BME280;51027;42.162;24.754;2024-01-30T04:03:55;101938.56;;;0.09;83.42
64616;BME280;51027;42.162;24.754;2024-01-30T04:06:21;101945.69;;;0.37;83.47
64616;BME280;51027;42.162;24.754;2024-01-30T04:08:46;101947.63;;;0.65;82.08
64616;BME280;51027;42.162;24.754;2024-01-30T04:11:11;101953.59;;;0.40;82.58
64616;BME280;51027;42.162;24.754;2024-01-30T04:13:37;101946.75;;;0.20;83.90
64616;BME280;51027;42.162;24.754;2024-01-30T04:16:03;101947.50;;;0.17;84.43
64616;BME280;51027;42.162;24.754;2024-01-30T04:18:29;101931.28;;;-0.22;86.04
64616;BME280;51027;42.162;24.754;2024-01-30T04:20:54;101949.78;;;-0.54;88.38
64616;BME280;51027;42.162;24.754;2024-01-30T04:23:20;101950.66;;;-0.12;87.73
64616;BME280;51027;42.162;24.754;2024-01-30T04:25:45;101948.56;;;-0.63;89.21
64616;BME280;51027;42.162;24.754;2024-01-30T04:28:11;101946.75;;;-0.84;92.24
64616;BME280;51027;42.162;24.754;2024-01-30T04:30:39;101950.97;;;-0.67;91.56
64616;BME280;51027;42.162;24.754;2024-01-30T04:33:05;101958.28;;;-1.17;93.56
64616;BME280;51027;42.162;24.754;2024-01-30T04:35:30;101945.53;;;-0.73;92.39
64616;BME280;51027;42.162;24.754;2024-01-30T04:37:56;101936.59;;;-0.19;96.63
64616;BME280;51027;42.162;24.754;2024-01-30T04:40:21;101957.94;;;-0.24;91.23
64616;BME280;51027;42.162;24.754;2024-01-30T04:42:47;101978.41;;;-0.10;89.90
64616;BME280;51027;42.162;24.754;2024-01-30T04:45:12;101976.75;;;-0.28;90.21
64616;BME280;51027;42.162;24.754;2024-01-30T04:47:38;101985.53;;;-0.25;90.29
64616;BME280;51027;42.162;24.754;2024-01-30T04:50:06;101963.16;;;-0.44;91.41
64616;BME280;51027;42.162;24.754;2024-01-30T04:52:31;101968.09;;;-0.08;89.49
64616;BME280;51027;42.162;24.754;2024-01-30T04:54:57;101986.16;;;0.11;88.65
64616;BME280;51027;42.162;24.754;2024-01-30T04:57:22;101980.16;;;0.12;88.40
64616;BME280;51027;42.162;24.754;2024-01-30T04:59:48;101981.16;;;0.16;87.99
64616;BME280;51027;42.162;24.754;2024-01-30T05:02:13;101980.84;;;0.31;87.36
64616;BME280;51027;42.162;24.754;2024-01-30T05:04:40;101986.66;;;0.46;86.66
64616;BME280;51027;42.162;24.754;2024-01-30T05:07:06;101968.16;;;0.37;86.23
64616;BME280;51027;42.162;24.754;2024-01-30T05:09:31;101992.25;;;0.34;87.03
64616;BME280;51027;42.162;24.754;2024-01-30T05:11:56;101985.41;;;0.36;86.93
64616;BME280;51027;42.162;24.754;2024-01-30T05:14:23;101989.59;;;0.33;86.70
64616;BME280;51027;42.162;24.754;2024-01-30T05:16:48;101992.53;;;0.64;85.74
64616;BME280;51027;42.162;24.754;2024-01-30T05:19:14;101964.03;;;0.42;85.68
64616;BME280;51027;42.162;24.754;2024-01-30T05:21:41;101992.41;;;0.39;86.44
64616;BME280;51027;42.162;24.754;2024-01-30T05:24:06;101967.84;;;0.29;87.42
64616;BME280;51027;42.162;24.754;2024-01-30T05:26:32;101981.44;;;0.68;85.79
64616;BME280;51027;42.162;24.754;2024-01-30T05:28:58;101989.34;;;0.71;85.45
64616;BME280;51027;42.162;24.754;2024-01-30T05:31:23;101983.06;;;0.65;85.84
64616;BME280;51027;42.162;24.754;2024-01-30T05:33:51;101969.78;;;0.57;85.60
64616;BME280;51027;42.162;24.754;2024-01-30T05:36:16;101977.38;;;0.30;87.50
64616;BME280;51027;42.162;24.754;2024-01-30T05:38:42;101965.75;;;-0.02;89.63
64616;BME280;51027;42.162;24.754;2024-01-30T05:41:08;101971.91;;;0.22;88.46
64616;BME280;51027;42.162;24.754;2024-01-30T05:43:33;101986.22;;;0.13;88.59
64616;BME280;51027;42.162;24.754;2024-01-30T05:45:59;101996.69;;;0.16;87.56
64616;BME280;51027;42.162;24.754;2024-01-30T05:48:24;101989.31;;;0.04;87.83
64616;BME280;51027;42.162;24.754;2024-01-30T05:50:49;101983.84;;;0.19;88.31
64616;BME280;51027;42.162;24.754;2024-01-30T05:53:15;101988.94;;;0.38;87.36
64616;BME280;51027;42.162;24.754;2024-01-30T05:55:40;101974.63;;;0.25;86.75
64616;BME280;51027;42.162;24.754;2024-01-30T05:58:06;101989.78;;;0.16;86.95
64616;BME280;51027;42.162;24.754;2024-01-30T06:00:31;101992.19;;;0.33;86.61
64616;BME280;51027;42.162;24.754;2024-01-30T06:02:57;101991.78;;;0.01;88.27
64616;BME280;51027;42.162;24.754;2024-01-30T06:05:22;101989.09;;;0.20;87.92
64616;BME280;51027;42.162;24.754;2024-01-30T06:07:47;101991.69;;;-0.01;88.35
64616;BME280;51027;42.162;24.754;2024-01-30T06:10:13;101991.06;;;0.05;89.36
64616;BME280;51027;42.162;24.754;2024-01-30T06:12:38;101988.81;;;-0.08;90.76
64616;BME280;51027;42.162;24.754;2024-01-30T06:15:04;101995.56;;;-0.12;91.22
64616;BME280;51027;42.162;24.754;2024-01-30T06:17:30;102004.97;;;0.07;90.96
64616;BME280;51027;42.162;24.754;2024-01-30T06:19:55;102007.34;;;0.01;91.20
64616;BME280;51027;42.162;24.754;2024-01-30T06:22:21;102004.94;;;0.28;89.44
64616;BME280;51027;42.162;24.754;2024-01-30T06:24:46;102008.34;;;-0.16;91.19
64616;BME280;51027;42.162;24.754;2024-01-30T06:27:14;102002.38;;;-0.14;92.16
64616;BME280;51027;42.162;24.754;2024-01-30T06:29:40;102001.69;;;0.11;90.98
64616;BME280;51027;42.162;24.754;2024-01-30T06:32:06;101982.78;;;0.14;90.59
64616;BME280;51027;42.162;24.754;2024-01-30T06:34:31;102004.34;;;0.13;90.98
64616;BME280;51027;42.162;24.754;2024-01-30T06:36:56;102008.19;;;0.90;100.00
64616;BME280;51027;42.162;24.754;2024-01-30T06:39:22;102006.59;;;0.71;100.00
64616;BME280;51027;42.162;24.754;2024-01-30T06:41:48;102007.69;;;0.31;100.00
64616;BME280;51027;42.162;24.754;2024-01-30T06:44:13;102009.59;;;0.14;100.00
64616;BME280;51027;42.162;24.754;2024-01-30T06:46:39;102011.75;;;-0.17;100.00
64616;BME280;51027;42.162;24.754;2024-01-30T06:49:04;102003.84;;;0.01;100.00
64616;BME280;51027;42.162;24.754;2024-01-30T06:51:30;101980.91;;;-0.11;100.00
64616;BME280;51027;42.162;24.754;2024-01-30T06:53:56;102014.72;;;0.13;100.00
64616;BME280;51027;42.162;24.754;2024-01-30T06:56:21;102020.06;;;0.17;100.00
64616;BME280;51027;42.162;24.754;2024-01-30T06:58:48;102012.59;;;0.25;100.00
64616;BME280;51027;42.162;24.754;2024-01-30T07:01:14;102019.22;;;0.39;100.00
64616;BME280;51027;42.162;24.754;2024-01-30T07:03:40;102025.47;;;0.44;100.00
64616;BME280;51027;42.162;24.754;2024-01-30T07:06:05;102018.59;;;0.67;100.00
64616;BME280;51027;42.162;24.754;2024-01-30T07:08:30;102017.47;;;0.83;100.00
64616;BME280;51027;42.162;24.754;2024-01-30T07:10:56;102020.88;;;0.82;100.00
64616;BME280;51027;42.162;24.754;2024-01-30T07:13:22;102015.63;;;0.36;100.00
64616;BME280;51027;42.162;24.754;2024-01-30T07:15:47;102013.41;;;0.67;100.00
64616;BME280;51027;42.162;24.754;2024-01-30T07:18:12;101977.94;;;0.44;100.00
64616;BME280;51027;42.162;24.754;2024-01-30T07:20:39;101985.06;;;0.72;100.00
64616;BME280;51027;42.162;24.754;2024-01-30T07:23:13;102011.63;;;0.66;100.00
64616;BME280;51027;42.162;24.754;2024-01-30T07:25:41;102015.22;;;0.47;100.00
64616;BME280;51027;42.162;24.754;2024-01-30T07:28:10;102014.69;;;0.56;100.00
64616;BME280;51027;42.162;24.754;2024-01-30T07:30:36;102019.19;;;0.82;100.00
64616;BME280;51027;42.162;24.754;2024-01-30T07:33:02;102018.63;;;0.69;100.00
64616;BME280;51027;42.162;24.754;2024-01-30T07:35:27;102014.13;;;0.63;100.00
64616;BME280;51027;42.162;24.754;2024-01-30T07:37:53;102029.81;;;0.90;100.00
64616;BME280;51027;42.162;24.754;2024-01-30T07:40:18;102025.81;;;0.98;100.00
64616;BME280;51027;42.162;24.754;2024-01-30T07:42:44;102023.13;;;1.19;100.00
64616;BME280;51027;42.162;24.754;2024-01-30T07:45:09;102036.16;;;1.21;100.00
64616;BME280;51027;42.162;24.754;2024-01-30T07:47:35;102023.00;;;0.92;100.00
64616;BME280;51027;42.162;24.754;2024-01-30T07:50:00;102026.53;;;1.18;100.00
64616;BME280;51027;42.162;24.754;2024-01-30T07:52:26;102012.63;;;1.16;100.00
64616;BME280;51027;42.162;24.754;2024-01-30T07:54:51;102019.88;;;1.25;100.00
64616;BME280;51027;42.162;24.754;2024-01-30T07:57:25;101984.34;;;1.00;100.00
64616;BME280;51027;42.162;24.754;2024-01-30T07:59:51;101995.13;;;1.34;100.00
64616;BME280;51027;42.162;24.754;2024-01-30T08:02:16;102030.34;;;1.28;100.00
64616;BME280;51027;42.162;24.754;2024-01-30T08:04:41;101996.56;;;1.26;100.00
64616;BME280;51027;42.162;24.754;2024-01-30T08:07:07;102027.88;;;1.55;100.00
64616;BME280;51027;42.162;24.754;2024-01-30T08:09:32;102027.78;;;1.53;100.00
64616;BME280;51027;42.162;24.754;2024-01-30T08:11:58;102013.31;;;1.12;100.00
64616;BME280;51027;42.162;24.754;2024-01-30T08:14:23;102011.25;;;1.26;100.00
64616;BME280;51027;42.162;24.754;2024-01-30T08:16:48;102028.91;;;1.12;100.00
64616;BME280;51027;42.162;24.754;2024-01-30T08:19:14;102006.28;;;1.08;100.00
64616;BME280;51027;42.162;24.754;2024-01-30T08:21:40;102010.56;;;1.55;100.00
64616;BME280;51027;42.162;24.754;2024-01-30T08:24:06;102021.91;;;1.33;100.00
64616;BME280;51027;42.162;24.754;2024-01-30T08:26:32;102007.88;;;1.28;100.00
64616;BME280;51027;42.162;24.754;2024-01-30T08:28:57;102020.22;;;1.59;99.25
64616;BME280;51027;42.162;24.754;2024-01-30T08:31:23;102011.56;;;1.59;99.13
64616;BME280;51027;42.162;24.754;2024-01-30T08:33:48;102009.00;;;1.60;97.78
64616;BME280;51027;42.162;24.754;2024-01-30T08:36:15;102024.94;;;1.71;96.60
64616;BME280;51027;42.162;24.754;2024-01-30T08:38:40;102026.75;;;1.48;96.70
64616;BME280;51027;42.162;24.754;2024-01-30T08:41:07;102026.91;;;1.53;93.58
64616;BME280;51027;42.162;24.754;2024-01-30T08:43:32;102018.13;;;2.00;91.75
64616;BME280;51027;42.162;24.754;2024-01-30T08:46:01;102025.56;;;2.15;90.82
64616;BME280;51027;42.162;24.754;2024-01-30T08:48:26;102019.03;;;2.27;90.15
64616;BME280;51027;42.162;24.754;2024-01-30T08:50:52;102010.28;;;2.52;89.35
64616;BME280;51027;42.162;24.754;2024-01-30T08:53:17;102012.72;;;2.46;89.32
64616;BME280;51027;42.162;24.754;2024-01-30T08:55:44;102005.75;;;2.75;87.70
64616;BME280;51027;42.162;24.754;2024-01-30T08:58:09;102015.41;;;3.08;86.17
64616;BME280;51027;42.162;24.754;2024-01-30T09:00:35;102020.06;;;3.18;85.88
64616;BME280;51027;42.162;24.754;2024-01-30T09:03:00;102003.19;;;2.47;85.37
64616;BME280;51027;42.162;24.754;2024-01-30T09:05:26;102017.16;;;3.07;85.10
64616;BME280;51027;42.162;24.754;2024-01-30T09:07:51;102015.91;;;2.96;83.62
64616;BME280;51027;42.162;24.754;2024-01-30T09:10:16;102007.38;;;2.70;84.66
64616;BME280;51027;42.162;24.754;2024-01-30T09:12:42;102013.88;;;2.86;84.42
64616;BME280;51027;42.162;24.754;2024-01-30T09:15:08;102011.06;;;3.07;83.66
64616;BME280;51027;42.162;24.754;2024-01-30T09:17:33;102007.03;;;3.18;75.54
64616;BME280;51027;42.162;24.754;2024-01-30T09:19:59;102012.97;;;3.14;74.34
64616;BME280;51027;42.162;24.754;2024-01-30T09:22:24;101997.88;;;2.72;75.49
64616;BME280;51027;42.162;24.754;2024-01-30T09:24:50;101994.94;;;2.90;74.25
64616;BME280;51027;42.162;24.754;2024-01-30T09:27:15;101985.38;;;3.19;71.87
64616;BME280;51027;42.162;24.754;2024-01-30T09:29:41;101984.56;;;2.62;73.08
64616;BME280;51027;42.162;24.754;2024-01-30T09:32:06;101998.75;;;2.73;73.12
64616;BME280;51027;42.162;24.754;2024-01-30T09:34:32;101981.63;;;2.79;72.37
64616;BME280;51027;42.162;24.754;2024-01-30T09:36:59;101991.53;;;2.93;71.89
64616;BME280;51027;42.162;24.754;2024-01-30T09:39:25;101984.66;;;3.26;70.98
64616;BME280;51027;42.162;24.754;2024-01-30T09:42:12;101985.72;;;3.33;70.66
64616;BME280;51027;42.162;24.754;2024-01-30T09:44:43;101973.47;;;3.29;71.29
64616;BME280;51027;42.162;24.754;2024-01-30T09:47:09;101971.34;;;3.47;70.57
64616;BME280;51027;42.162;24.754;2024-01-30T09:49:35;101975.38;;;3.36;70.83
64616;BME280;51027;42.162;24.754;2024-01-30T09:52:02;101967.38;;;3.28;71.13
64616;BME280;51027;42.162;24.754;2024-01-30T09:54:31;101958.63;;;3.26;71.15
64616;BME280;51027;42.162;24.754;2024-01-30T09:56:59;101962.22;;;3.30;71.23
64616;BME280;51027;42.162;24.754;2024-01-30T09:59:25;101961.38;;;3.31;71.18
64616;BME280;51027;42.162;24.754;2024-01-30T10:01:50;101951.03;;;3.34;69.94
64616;BME280;51027;42.162;24.754;2024-01-30T10:04:17;101968.69;;;3.12;72.22
64616;BME280;51027;42.162;24.754;2024-01-30T10:06:42;101959.16;;;3.79;69.86
64616;BME280;51027;42.162;24.754;2024-01-30T10:09:08;101967.59;;;4.05;68.89
64616;BME280;51027;42.162;24.754;2024-01-30T10:11:36;101962.44;;;3.37;69.81
64616;BME280;51027;42.162;24.754;2024-01-30T10:14:01;101940.47;;;3.28;69.14
64616;BME280;51027;42.162;24.754;2024-01-30T10:16:27;101950.56;;;3.83;68.50
64616;BME280;51027;42.162;24.754;2024-01-30T10:18:53;101961.31;;;3.97;67.63
64616;BME280;51027;42.162;24.754;2024-01-30T10:21:18;101956.09;;;3.97;67.13
64616;BME280;51027;42.162;24.754;2024-01-30T10:23:44;101937.03;;;4.37;65.74
64616;BME280;51027;42.162;24.754;2024-01-30T10:26:12;101943.88;;;3.94;66.96
64616;BME280;51027;42.162;24.754;2024-01-30T10:28:38;101957.94;;;4.01;66.74
64616;BME280;51027;42.162;24.754;2024-01-30T10:31:03;101962.56;;;3.43;67.12
64616;BME280;51027;42.162;24.754;2024-01-30T10:33:32;101955.34;;;4.01;65.91
64616;BME280;51027;42.162;24.754;2024-01-30T10:36:04;101943.06;;;4.34;65.43
64616;BME280;51027;42.162;24.754;2024-01-30T10:38:32;101955.00;;;4.62;64.37
64616;BME280;51027;42.162;24.754;2024-01-30T10:40:59;101955.03;;;4.64;62.22
64616;BME280;51027;42.162;24.754;2024-01-30T10:43:47;101957.31;;;4.11;62.84
64616;BME280;51027;42.162;24.754;2024-01-30T10:46:17;101945.06;;;4.87;61.26
64616;BME280;51027;42.162;24.754;2024-01-30T10:48:43;101923.28;;;4.85;61.58
64616;BME280;51027;42.162;24.754;2024-01-30T10:51:14;101944.97;;;4.82;60.77
64616;BME280;51027;42.162;24.754;2024-01-30T10:53:41;101944.03;;;5.23;60.86
64616;BME280;51027;42.162;24.754;2024-01-30T10:56:07;101939.13;;;5.41;60.04
64616;BME280;51027;42.162;24.754;2024-01-30T10:58:33;101922.34;;;5.28;59.72
64616;BME280;51027;42.162;24.754;2024-01-30T11:00:59;101927.94;;;5.48;58.65
64616;BME280;51027;42.162;24.754;2024-01-30T11:03:24;101929.50;;;5.90;57.50
64616;BME280;51027;42.162;24.754;2024-01-30T11:05:51;101925.66;;;5.66;57.99
64616;BME280;51027;42.162;24.754;2024-01-30T11:08:26;101930.59;;;6.02;57.94
64616;BME280;51027;42.162;24.754;2024-01-30T11:10:57;101908.34;;;5.73;57.76
64616;BME280;51027;42.162;24.754;2024-01-30T11:13:31;101918.91;;;5.81;57.09
64616;BME280;51027;42.162;24.754;2024-01-30T11:16:06;101922.28;;;6.96;54.75
64616;BME280;51027;42.162;24.754;2024-01-30T11:18:33;101917.00;;;6.94;54.77
64616;BME280;51027;42.162;24.754;2024-01-30T11:21:00;101914.53;;;7.07;53.93
64616;BME280;51027;42.162;24.754;2024-01-30T11:23:28;101913.34;;;7.65;53.11
64616;BME280;51027;42.162;24.754;2024-01-30T11:25:54;101894.56;;;8.30;50.67
64616;BME280;51027;42.162;24.754;2024-01-30T11:28:21;101903.72;;;9.88;45.61
64616;BME280;51027;42.162;24.754;2024-01-30T11:30:47;101888.41;;;11.11;43.29
64616;BME280;51027;42.162;24.754;2024-01-30T11:33:27;101882.75;;;16.16;34.34
64616;BME280;51027;42.162;24.754;2024-01-30T11:35:57;101873.38;;;13.54;36.51
64616;BME280;51027;42.162;24.754;2024-01-30T11:38:26;101878.66;;;16.35;32.09
64616;BME280;51027;42.162;24.754;2024-01-30T11:40:51;101879.84;;;18.69;29.45
64616;BME280;51027;42.162;24.754;2024-01-30T11:43:18;101872.00;;;19.34;28.08
64616;BME280;51027;42.162;24.754;2024-01-30T11:45:44;101866.31;;;20.65;26.38
64616;BME280;51027;42.162;24.754;2024-01-30T11:48:11;101860.66;;;21.45;24.66
64616;BME280;51027;42.162;24.754;2024-01-30T11:50:38;101860.91;;;16.67;29.60
64616;BME280;51027;42.162;24.754;2024-01-30T11:53:04;101858.38;;;15.66;30.16
64616;BME280;51027;42.162;24.754;2024-01-30T11:55:30;101845.66;;;15.42;30.83
64616;BME280;51027;42.162;24.754;2024-01-30T11:57:57;101848.94;;;18.39;27.70
64616;BME280;51027;42.162;24.754;2024-01-30T12:00:23;101844.59;;;15.12;30.49
64616;BME280;51027;42.162;24.754;2024-01-30T12:02:54;101836.09;;;16.35;30.08
64616;BME280;51027;42.162;24.754;2024-01-30T12:05:25;101831.84;;;14.92;30.91
64616;BME280;51027;42.162;24.754;2024-01-30T12:07:51;101841.03;;;14.76;31.79
64616;BME280;51027;42.162;24.754;2024-01-30T12:10:17;101841.50;;;14.54;31.92
64616;BME280;51027;42.162;24.754;2024-01-30T12:12:54;101826.25;;;13.22;33.35
64616;BME280;51027;42.162;24.754;2024-01-30T12:15:21;101822.00;;;13.64;33.76
64616;BME280;51027;42.162;24.754;2024-01-30T12:17:47;101808.50;;;12.70;33.82
64616;BME280;51027;42.162;24.754;2024-01-30T12:20:14;101815.19;;;12.94;34.48
64616;BME280;51027;42.162;24.754;2024-01-30T12:22:41;101816.81;;;13.58;33.66
64616;BME280;51027;42.162;24.754;2024-01-30T12:25:14;101802.41;;;11.91;35.94
64616;BME280;51027;42.162;24.754;2024-01-30T12:27:42;101801.31;;;11.18;37.73
64616;BME280;51027;42.162;24.754;2024-01-30T12:30:10;101801.59;;;10.79;37.76
64616;BME280;51027;42.162;24.754;2024-01-30T12:32:38;101796.09;;;11.09;37.59
64616;BME280;51027;42.162;24.754;2024-01-30T12:35:10;101791.75;;;13.77;33.42
64616;BME280;51027;42.162;24.754;2024-01-30T12:37:36;101783.63;;;11.34;36.59
64616;BME280;51027;42.162;24.754;2024-01-30T12:40:01;101787.56;;;10.77;37.99